sensor_id;sensor_type;location;lat;lon;timestamp;temperature;humidity
80367;DHT22;70058;42.660;23.366;2024-02-14T00:01:17;9.80;56.20
80367;DHT22;70058;42.660;23.366;2024-02-14T00:03:44;9.80;55.80
80367;DHT22;70058;42.660;23.366;2024-02-14T00:06:09;9.80;55.40
80367;DHT22;70058;42.660;23.366;2024-02-14T00:08:37;9.80;55.60
80367;DHT22;70058;42.660;23.366;2024-02-14T00:11:03;9.70;55.80
80367;DHT22;70058;42.660;23.366;2024-02-14T00:13:29;9.50;56.20
80367;DHT22;70058;42.660;23.366;2024-02-14T00:15:55;9.60;56.60
80367;DHT22;70058;42.660;23.366;2024-02-14T00:18:22;9.60;56.90
80367;DHT22;70058;42.660;23.366;2024-02-14T00:20:48;9.60;56.80
80367;DHT22;70058;42.660;23.366;2024-02-14T00:23:14;9.50;56.30
80367;DHT22;70058;42.660;23.366;2024-02-14T00:25:39;9.20;57.00
80367;DHT22;70058;42.660;23.366;2024-02-14T00:28:05;9.40;57.40
80367;DHT22;70058;42.660;23.366;2024-02-14T00:30:31;9.40;56.80
80367;DHT22;70058;42.660;23.366;2024-02-14T00:32:57;9.60;56.90
80367;DHT22;70058;42.660;23.366;2024-02-14T00:35:22;9.80;56.30
80367;DHT22;70058;42.660;23.366;2024-02-14T00:37:48;9.80;55.50
80367;DHT22;70058;42.660;23.366;2024-02-14T00:40:14;9.60;56.00
80367;DHT22;70058;42.660;23.366;2024-02-14T00:42:40;9.60;56.30
80367;DHT22;70058;42.660;23.366;2024-02-14T00:45:06;9.40;56.50
80367;DHT22;70058;42.660;23.366;2024-02-14T00:50:21;9.70;56.60
80367;DHT22;70058;42.660;23.366;2024-02-14T00:52:47;9.90;56.10
80367;DHT22;70058;42.660;23.366;2024-02-14T00:55:13;10.00;55.60
80367;DHT22;70058;42.660;23.366;2024-02-14T00:57:38;10.10;54.90
80367;DHT22;70058;42.660;23.366;2024-02-14T01:00:05;9.90;54.80
80367;DHT22;70058;42.660;23.366;2024-02-14T01:02:32;9.80;55.60
80367;DHT22;70058;42.660;23.366;2024-02-14T01:04:57;9.80;55.50
80367;DHT22;70058;42.660;23.366;2024-02-14T01:07:23;9.90;55.60
80367;DHT22;70058;42.660;23.366;2024-02-14T01:09:48;9.70;55.50
80367;DHT22;70058;42.660;23.366;2024-02-14T01:12:15;9.90;55.50
80367;DHT22;70058;42.660;23.366;2024-02-14T01:14:42;9.80;55.30
80367;DHT22;70058;42.660;23.366;2024-02-14T01:17:07;9.70;55.40
80367;DHT22;70058;42.660;23.366;2024-02-14T01:19:33;9.70;55.70
80367;DHT22;70058;42.660;23.366;2024-02-14T01:21:59;9.80;55.50
80367;DHT22;70058;42.660;23.366;2024-02-14T01:24:25;9.90;55.20
80367;DHT22;70058;42.660;23.366;2024-02-14T01:26:55;9.90;55.00
80367;DHT22;70058;42.660;23.366;2024-02-14T01:29:21;9.90;55.80
80367;DHT22;70058;42.660;23.366;2024-02-14T01:31:48;9.90;55.30
80367;DHT22;70058;42.660;23.366;2024-02-14T01:34:15;9.90;55.40
80367;DHT22;70058;42.660;23.366;2024-02-14T01:36:59;9.90;54.90
80367;DHT22;70058;42.660;23.366;2024-02-14T01:39:25;10.00;55.10
80367;DHT22;70058;42.660;23.366;2024-02-14T01:41:51;10.00;54.50
80367;DHT22;70058;42.660;23.366;2024-02-14T01:44:17;9.90;54.70
80367;DHT22;70058;42.660;23.366;2024-02-14T01:46:43;9.80;54.90
80367;DHT22;70058;42.660;23.366;2024-02-14T01:49:10;9.80;54.80
80367;DHT22;70058;42.660;23.366;2024-02-14T01:51:38;9.80;55.20
80367;DHT22;70058;42.660;23.366;2024-02-14T01:54:05;9.90;54.90
80367;DHT22;70058;42.660;23.366;2024-02-14T01:56:31;10.10;54.50
80367;DHT22;70058;42.660;23.366;2024-02-14T01:58:59;9.80;55.00
80367;DHT22;70058;42.660;23.366;2024-02-14T02:01:26;9.90;55.00
80367;DHT22;70058;42.660;23.366;2024-02-14T02:03:52;9.80;55.60
80367;DHT22;70058;42.660;23.366;2024-02-14T02:06:18;9.90;55.00
80367;DHT22;70058;42.660;23.366;2024-02-14T02:08:44;9.70;55.30
80367;DHT22;70058;42.660;23.366;2024-02-14T02:11:10;9.80;55.50
80367;DHT22;70058;42.660;23.366;2024-02-14T02:13:36;10.00;55.10
80367;DHT22;70058;42.660;23.366;2024-02-14T02:16:05;10.00;54.50
80367;DHT22;70058;42.660;23.366;2024-02-14T02:18:32;9.90;55.10
80367;DHT22;70058;42.660;23.366;2024-02-14T02:20:57;9.70;55.50
80367;DHT22;70058;42.660;23.366;2024-02-14T02:23:23;9.60;55.80
80367;DHT22;70058;42.660;23.366;2024-02-14T02:25:49;9.70;56.10
80367;DHT22;70058;42.660;23.366;2024-02-14T02:28:16;9.60;55.20
80367;DHT22;70058;42.660;23.366;2024-02-14T02:30:42;9.60;55.40
80367;DHT22;70058;42.660;23.366;2024-02-14T02:33:08;9.50;55.40
80367;DHT22;70058;42.660;23.366;2024-02-14T02:35:34;9.30;56.20
80367;DHT22;70058;42.660;23.366;2024-02-14T02:38:00;9.40;56.20
80367;DHT22;70058;42.660;23.366;2024-02-14T02:40:26;9.40;56.30
80367;DHT22;70058;42.660;23.366;2024-02-14T02:42:55;9.40;56.00
80367;DHT22;70058;42.660;23.366;2024-02-14T02:45:21;9.50;55.60
80367;DHT22;70058;42.660;23.366;2024-02-14T02:47:47;9.40;56.00
80367;DHT22;70058;42.660;23.366;2024-02-14T02:50:13;9.30;55.90
80367;DHT22;70058;42.660;23.366;2024-02-14T02:52:39;9.30;56.10
80367;DHT22;70058;42.660;23.366;2024-02-14T02:55:06;9.30;56.10
80367;DHT22;70058;42.660;23.366;2024-02-14T02:57:32;9.50;55.00
80367;DHT22;70058;42.660;23.366;2024-02-14T02:59:59;9.50;55.30
80367;DHT22;70058;42.660;23.366;2024-02-14T03:02:24;9.30;55.50
80367;DHT22;70058;42.660;23.366;2024-02-14T03:04:51;9.40;55.40
80367;DHT22;70058;42.660;23.366;2024-02-14T03:07:18;9.30;55.40
80367;DHT22;70058;42.660;23.366;2024-02-14T03:09:44;9.30;55.70
80367;DHT22;70058;42.660;23.366;2024-02-14T03:12:10;9.40;55.40
80367;DHT22;70058;42.660;23.366;2024-02-14T03:14:36;9.50;55.70
80367;DHT22;70058;42.660;23.366;2024-02-14T03:17:05;9.60;55.20
80367;DHT22;70058;42.660;23.366;2024-02-14T03:19:30;9.60;55.70
80367;DHT22;70058;42.660;23.366;2024-02-14T03:21:56;9.70;54.90
80367;DHT22;70058;42.660;23.366;2024-02-14T03:24:23;9.80;54.40
80367;DHT22;70058;42.660;23.366;2024-02-14T03:26:54;9.80;54.20
80367;DHT22;70058;42.660;23.366;2024-02-14T03:29:20;9.80;54.50
80367;DHT22;70058;42.660;23.366;2024-02-14T03:31:46;9.80;54.10
80367;DHT22;70058;42.660;23.366;2024-02-14T03:34:12;9.60;54.50
80367;DHT22;70058;42.660;23.366;2024-02-14T03:36:38;9.60;54.90
80367;DHT22;70058;42.660;23.366;2024-02-14T03:39:05;9.60;54.60
80367;DHT22;70058;42.660;23.366;2024-02-14T03:41:32;9.50;54.60
80367;DHT22;70058;42.660;23.366;2024-02-14T03:43:57;9.60;55.00
80367;DHT22;70058;42.660;23.366;2024-02-14T03:46:28;9.50;54.70
80367;DHT22;70058;42.660;23.366;2024-02-14T03:48:55;9.50;54.50
80367;DHT22;70058;42.660;23.366;2024-02-14T03:51:23;9.50;54.80
80367;DHT22;70058;42.660;23.366;2024-02-14T03:53:49;9.50;54.50
80367;DHT22;70058;42.660;23.366;2024-02-14T03:56:15;9.50;54.60
80367;DHT22;70058;42.660;23.366;2024-02-14T03:58:42;9.40;54.90
80367;DHT22;70058;42.660;23.366;2024-02-14T04:01:07;9.40;54.80
80367;DHT22;70058;42.660;23.366;2024-02-14T04:03:33;9.60;54.80
80367;DHT22;70058;42.660;23.366;2024-02-14T04:05:59;9.70;54.80
80367;DHT22;70058;42.660;23.366;2024-02-14T04:08:25;9.70;53.80
80367;DHT22;70058;42.660;23.366;2024-02-14T04:11:01;9.70;54.10
80367;DHT22;70058;42.660;23.366;2024-02-14T04:13:27;9.60;53.90
80367;DHT22;70058;42.660;23.366;2024-02-14T04:15:53;9.50;54.20
80367;DHT22;70058;42.660;23.366;2024-02-14T04:18:18;9.50;54.30
80367;DHT22;70058;42.660;23.366;2024-02-14T04:20:44;9.60;54.20
80367;DHT22;70058;42.660;23.366;2024-02-14T04:23:10;9.60;54.10
80367;DHT22;70058;42.660;23.366;2024-02-14T04:25:36;9.60;53.90
80367;DHT22;70058;42.660;23.366;2024-02-14T04:28:03;9.60;53.90
80367;DHT22;70058;42.660;23.366;2024-02-14T04:30:28;9.40;54.10
80367;DHT22;70058;42.660;23.366;2024-02-14T04:32:55;9.50;54.10
80367;DHT22;70058;42.660;23.366;2024-02-14T04:35:20;9.50;54.20
80367;DHT22;70058;42.660;23.366;2024-02-14T04:37:46;9.40;54.10
80367;DHT22;70058;42.660;23.366;2024-02-14T04:40:13;9.60;53.80
80367;DHT22;70058;42.660;23.366;2024-02-14T04:42:40;9.60;53.70
80367;DHT22;70058;42.660;23.366;2024-02-14T04:45:06;9.50;53.90
80367;DHT22;70058;42.660;23.366;2024-02-14T04:47:32;9.60;53.90
80367;DHT22;70058;42.660;23.366;2024-02-14T04:49:58;9.50;54.20
80367;DHT22;70058;42.660;23.366;2024-02-14T04:52:24;9.60;54.00
80367;DHT22;70058;42.660;23.366;2024-02-14T04:54:49;9.50;54.20
80367;DHT22;70058;42.660;23.366;2024-02-14T04:57:15;9.40;54.10
80367;DHT22;70058;42.660;23.366;2024-02-14T04:59:41;9.20;54.30
80367;DHT22;70058;42.660;23.366;2024-02-14T05:02:06;9.20;54.50
80367;DHT22;70058;42.660;23.366;2024-02-14T05:04:32;9.10;55.00
80367;DHT22;70058;42.660;23.366;2024-02-14T05:07:00;9.30;54.90
80367;DHT22;70058;42.660;23.366;2024-02-14T05:09:26;9.40;54.70
80367;DHT22;70058;42.660;23.366;2024-02-14T05:11:52;9.40;54.50
80367;DHT22;70058;42.660;23.366;2024-02-14T05:14:17;9.40;54.60
80367;DHT22;70058;42.660;23.366;2024-02-14T05:16:43;9.50;54.80
80367;DHT22;70058;42.660;23.366;2024-02-14T05:19:09;9.50;54.00
80367;DHT22;70058;42.660;23.366;2024-02-14T05:21:35;9.40;54.20
80367;DHT22;70058;42.660;23.366;2024-02-14T05:24:01;9.50;54.20
80367;DHT22;70058;42.660;23.366;2024-02-14T05:26:27;9.60;54.00
80367;DHT22;70058;42.660;23.366;2024-02-14T05:28:53;9.60;53.80
80367;DHT22;70058;42.660;23.366;2024-02-14T05:31:19;9.50;54.00
80367;DHT22;70058;42.660;23.366;2024-02-14T05:33:45;9.30;54.40
80367;DHT22;70058;42.660;23.366;2024-02-14T05:36:10;9.40;54.40
80367;DHT22;70058;42.660;23.366;2024-02-14T05:38:36;9.40;54.70
80367;DHT22;70058;42.660;23.366;2024-02-14T05:41:02;9.50;54.20
80367;DHT22;70058;42.660;23.366;2024-02-14T05:43:27;9.60;54.10
80367;DHT22;70058;42.660;23.366;2024-02-14T05:45:53;9.60;53.70
80367;DHT22;70058;42.660;23.366;2024-02-14T05:48:21;9.80;53.60
80367;DHT22;70058;42.660;23.366;2024-02-14T05:50:47;9.90;53.90
80367;DHT22;70058;42.660;23.366;2024-02-14T05:53:13;9.70;53.10
80367;DHT22;70058;42.660;23.366;2024-02-14T05:55:39;9.40;53.40
80367;DHT22;70058;42.660;23.366;2024-02-14T05:58:04;9.40;54.00
80367;DHT22;70058;42.660;23.366;2024-02-14T06:00:30;9.50;53.60
80367;DHT22;70058;42.660;23.366;2024-02-14T06:02:56;9.40;53.60
80367;DHT22;70058;42.660;23.366;2024-02-14T06:05:22;9.30;53.70
80367;DHT22;70058;42.660;23.366;2024-02-14T06:07:47;9.30;53.90
80367;DHT22;70058;42.660;23.366;2024-02-14T06:10:13;9.40;53.60
80367;DHT22;70058;42.660;23.366;2024-02-14T06:12:39;9.60;53.20
80367;DHT22;70058;42.660;23.366;2024-02-14T06:15:07;9.50;52.70
80367;DHT22;70058;42.660;23.366;2024-02-14T06:17:33;9.60;52.70
80367;DHT22;70058;42.660;23.366;2024-02-14T06:19:59;9.60;52.80
80367;DHT22;70058;42.660;23.366;2024-02-14T06:22:25;9.70;52.20
80367;DHT22;70058;42.660;23.366;2024-02-14T06:24:51;9.80;51.90
80367;DHT22;70058;42.660;23.366;2024-02-14T06:27:17;9.70;51.60
80367;DHT22;70058;42.660;23.366;2024-02-14T06:29:43;9.70;52.10
80367;DHT22;70058;42.660;23.366;2024-02-14T06:32:11;9.80;51.90
80367;DHT22;70058;42.660;23.366;2024-02-14T06:34:37;9.90;51.90
80367;DHT22;70058;42.660;23.366;2024-02-14T06:37:02;10.00;51.20
80367;DHT22;70058;42.660;23.366;2024-02-14T06:39:28;10.00;51.00
80367;DHT22;70058;42.660;23.366;2024-02-14T06:41:53;10.00;50.90
80367;DHT22;70058;42.660;23.366;2024-02-14T06:44:19;10.10;50.40
80367;DHT22;70058;42.660;23.366;2024-02-14T06:46:45;10.20;50.40
80367;DHT22;70058;42.660;23.366;2024-02-14T06:49:11;10.10;50.10
80367;DHT22;70058;42.660;23.366;2024-02-14T06:51:36;10.20;50.10
80367;DHT22;70058;42.660;23.366;2024-02-14T06:54:02;10.30;49.50
80367;DHT22;70058;42.660;23.366;2024-02-14T06:56:30;10.30;49.50
80367;DHT22;70058;42.660;23.366;2024-02-14T06:58:56;10.20;48.70
80367;DHT22;70058;42.660;23.366;2024-02-14T07:01:26;10.30;49.00
80367;DHT22;70058;42.660;23.366;2024-02-14T07:03:52;10.20;49.10
80367;DHT22;70058;42.660;23.366;2024-02-14T07:06:18;10.20;49.60
80367;DHT22;70058;42.660;23.366;2024-02-14T07:08:44;10.40;48.80
80367;DHT22;70058;42.660;23.366;2024-02-14T07:11:10;10.50;49.10
80367;DHT22;70058;42.660;23.366;2024-02-14T07:13:36;10.70;48.60
80367;DHT22;70058;42.660;23.366;2024-02-14T07:16:02;10.80;48.00
80367;DHT22;70058;42.660;23.366;2024-02-14T07:18:28;10.90;47.70
80367;DHT22;70058;42.660;23.366;2024-02-14T07:20:54;11.00;47.80
80367;DHT22;70058;42.660;23.366;2024-02-14T07:23:20;11.00;47.70
80367;DHT22;70058;42.660;23.366;2024-02-14T07:25:46;11.00;46.90
80367;DHT22;70058;42.660;23.366;2024-02-14T07:28:12;11.10;46.90
80367;DHT22;70058;42.660;23.366;2024-02-14T07:30:38;11.10;47.10
80367;DHT22;70058;42.660;23.366;2024-02-14T07:33:03;11.10;47.00
80367;DHT22;70058;42.660;23.366;2024-02-14T07:35:29;11.10;46.80
80367;DHT22;70058;42.660;23.366;2024-02-14T07:37:55;11.20;46.80
80367;DHT22;70058;42.660;23.366;2024-02-14T07:40:24;11.20;46.60
80367;DHT22;70058;42.660;23.366;2024-02-14T07:43:03;11.20;46.30
80367;DHT22;70058;42.660;23.366;2024-02-14T07:45:29;11.10;46.30
80367;DHT22;70058;42.660;23.366;2024-02-14T07:47:54;11.10;46.60
80367;DHT22;70058;42.660;23.366;2024-02-14T07:50:20;11.30;46.30
80367;DHT22;70058;42.660;23.366;2024-02-14T07:52:47;11.20;46.10
80367;DHT22;70058;42.660;23.366;2024-02-14T07:55:13;10.80;46.60
80367;DHT22;70058;42.660;23.366;2024-02-14T07:57:39;10.60;46.80
80367;DHT22;70058;42.660;23.366;2024-02-14T08:00:09;10.60;47.30
80367;DHT22;70058;42.660;23.366;2024-02-14T08:02:35;10.10;48.30
80367;DHT22;70058;42.660;23.366;2024-02-14T08:05:02;10.30;48.30
80367;DHT22;70058;42.660;23.366;2024-02-14T08:07:34;10.10;48.30
80367;DHT22;70058;42.660;23.366;2024-02-14T08:10:00;10.20;48.30
80367;DHT22;70058;42.660;23.366;2024-02-14T08:12:26;10.20;48.70
80367;DHT22;70058;42.660;23.366;2024-02-14T08:14:52;10.00;48.40
80367;DHT22;70058;42.660;23.366;2024-02-14T08:17:18;9.60;49.10
80367;DHT22;70058;42.660;23.366;2024-02-14T08:19:43;9.30;49.90
80367;DHT22;70058;42.660;23.366;2024-02-14T08:22:09;9.40;50.00
80367;DHT22;70058;42.660;23.366;2024-02-14T08:24:35;9.30;50.20
80367;DHT22;70058;42.660;23.366;2024-02-14T08:27:00;9.40;49.60
80367;DHT22;70058;42.660;23.366;2024-02-14T08:29:26;9.30;50.00
80367;DHT22;70058;42.660;23.366;2024-02-14T08:31:52;9.50;49.20
80367;DHT22;70058;42.660;23.366;2024-02-14T08:34:18;9.50;49.10
80367;DHT22;70058;42.660;23.366;2024-02-14T08:36:44;9.50;49.10
80367;DHT22;70058;42.660;23.366;2024-02-14T08:39:10;9.40;49.70
80367;DHT22;70058;42.660;23.366;2024-02-14T08:41:39;9.30;49.80
80367;DHT22;70058;42.660;23.366;2024-02-14T08:44:06;9.50;49.70
80367;DHT22;70058;42.660;23.366;2024-02-14T08:46:32;9.70;48.70
80367;DHT22;70058;42.660;23.366;2024-02-14T08:49:00;9.60;48.80
80367;DHT22;70058;42.660;23.366;2024-02-14T08:51:28;9.70;48.70
80367;DHT22;70058;42.660;23.366;2024-02-14T08:53:54;9.70;48.10
80367;DHT22;70058;42.660;23.366;2024-02-14T08:56:22;9.60;48.40
80367;DHT22;70058;42.660;23.366;2024-02-14T08:58:49;9.60;49.00
80367;DHT22;70058;42.660;23.366;2024-02-14T09:01:14;9.80;48.70
80367;DHT22;70058;42.660;23.366;2024-02-14T09:03:44;10.20;48.00
80367;DHT22;70058;42.660;23.366;2024-02-14T09:06:14;10.20;47.60
80367;DHT22;70058;42.660;23.366;2024-02-14T09:08:44;10.40;46.70
80367;DHT22;70058;42.660;23.366;2024-02-14T09:11:10;9.90;47.70
80367;DHT22;70058;42.660;23.366;2024-02-14T09:13:37;10.00;48.20
80367;DHT22;70058;42.660;23.366;2024-02-14T09:16:03;10.00;47.60
80367;DHT22;70058;42.660;23.366;2024-02-14T09:18:31;10.00;47.60
80367;DHT22;70058;42.660;23.366;2024-02-14T09:20:59;10.10;48.20
80367;DHT22;70058;42.660;23.366;2024-02-14T09:23:27;10.10;47.70
80367;DHT22;70058;42.660;23.366;2024-02-14T09:25:52;10.20;47.50
80367;DHT22;70058;42.660;23.366;2024-02-14T09:28:19;10.40;47.20
80367;DHT22;70058;42.660;23.366;2024-02-14T09:30:45;10.40;46.60
80367;DHT22;70058;42.660;23.366;2024-02-14T09:33:11;10.30;46.80
80367;DHT22;70058;42.660;23.366;2024-02-14T09:35:41;10.20;47.30
80367;DHT22;70058;42.660;23.366;2024-02-14T09:38:10;10.10;48.10
80367;DHT22;70058;42.660;23.366;2024-02-14T09:40:39;9.90;47.40
80367;DHT22;70058;42.660;23.366;2024-02-14T09:43:11;9.80;48.30
80367;DHT22;70058;42.660;23.366;2024-02-14T09:45:41;9.90;47.80
80367;DHT22;70058;42.660;23.366;2024-02-14T09:48:09;10.10;48.10
80367;DHT22;70058;42.660;23.366;2024-02-14T09:50:35;10.20;47.10
80367;DHT22;70058;42.660;23.366;2024-02-14T09:53:02;10.10;47.20
80367;DHT22;70058;42.660;23.366;2024-02-14T09:55:28;10.30;47.20
80367;DHT22;70058;42.660;23.366;2024-02-14T09:57:54;10.20;46.60
80367;DHT22;70058;42.660;23.366;2024-02-14T10:00:21;10.30;46.20
80367;DHT22;70058;42.660;23.366;2024-02-14T10:02:48;10.50;46.10
80367;DHT22;70058;42.660;23.366;2024-02-14T10:05:13;10.60;45.80
80367;DHT22;70058;42.660;23.366;2024-02-14T10:07:43;10.70;45.60
80367;DHT22;70058;42.660;23.366;2024-02-14T10:10:09;10.60;45.40
80367;DHT22;70058;42.660;23.366;2024-02-14T10:12:36;10.30;46.10
80367;DHT22;70058;42.660;23.366;2024-02-14T10:15:02;10.20;46.80
80367;DHT22;70058;42.660;23.366;2024-02-14T10:17:28;10.30;46.30
80367;DHT22;70058;42.660;23.366;2024-02-14T10:19:58;10.20;46.60
80367;DHT22;70058;42.660;23.366;2024-02-14T10:22:35;10.00;46.50
80367;DHT22;70058;42.660;23.366;2024-02-14T10:25:02;10.10;47.00
80367;DHT22;70058;42.660;23.366;2024-02-14T10:27:30;10.30;46.10
80367;DHT22;70058;42.660;23.366;2024-02-14T10:29:57;10.30;45.70
80367;DHT22;70058;42.660;23.366;2024-02-14T10:32:24;10.40;45.70
80367;DHT22;70058;42.660;23.366;2024-02-14T10:34:50;10.50;45.30
80367;DHT22;70058;42.660;23.366;2024-02-14T10:37:18;10.40;45.30
80367;DHT22;70058;42.660;23.366;2024-02-14T10:39:46;10.30;45.50
80367;DHT22;70058;42.660;23.366;2024-02-14T10:42:14;10.50;45.90
80367;DHT22;70058;42.660;23.366;2024-02-14T10:44:40;10.50;44.90
80367;DHT22;70058;42.660;23.366;2024-02-14T10:47:09;10.20;45.10
80367;DHT22;70058;42.660;23.366;2024-02-14T10:49:37;10.00;45.70
80367;DHT22;70058;42.660;23.366;2024-02-14T10:52:06;10.10;45.50
80367;DHT22;70058;42.660;23.366;2024-02-14T10:54:35;10.20;45.40
80367;DHT22;70058;42.660;23.366;2024-02-14T10:57:05;10.10;45.70
80367;DHT22;70058;42.660;23.366;2024-02-14T10:59:33;10.20;45.80
80367;DHT22;70058;42.660;23.366;2024-02-14T11:02:00;10.20;45.80
80367;DHT22;70058;42.660;23.366;2024-02-14T11:04:26;10.10;46.10
80367;DHT22;70058;42.660;23.366;2024-02-14T11:06:55;10.30;46.10
80367;DHT22;70058;42.660;23.366;2024-02-14T11:09:37;10.50;45.20
80367;DHT22;70058;42.660;23.366;2024-02-14T11:12:07;10.10;45.30
80367;DHT22;70058;42.660;23.366;2024-02-14T11:14:35;10.10;45.70
80367;DHT22;70058;42.660;23.366;2024-02-14T11:17:14;10.20;46.00
80367;DHT22;70058;42.660;23.366;2024-02-14T11:19:40;10.30;45.70
80367;DHT22;70058;42.660;23.366;2024-02-14T11:22:13;10.40;45.80
80367;DHT22;70058;42.660;23.366;2024-02-14T11:24:45;10.50;46.00
80367;DHT22;70058;42.660;23.366;2024-02-14T11:27:19;10.60;46.00
80367;DHT22;70058;42.660;23.366;2024-02-14T11:29:52;10.70;44.90
80367;DHT22;70058;42.660;23.366;2024-02-14T11:32:22;10.70;44.90
80367;DHT22;70058;42.660;23.366;2024-02-14T11:34:54;10.60;45.00
80367;DHT22;70058;42.660;23.366;2024-02-14T11:37:27;10.50;45.10
80367;DHT22;70058;42.660;23.366;2024-02-14T11:39:54;10.40;45.20
80367;DHT22;70058;42.660;23.366;2024-02-14T11:42:27;10.60;45.20
80367;DHT22;70058;42.660;23.366;2024-02-14T11:44:56;10.70;45.50
80367;DHT22;70058;42.660;23.366;2024-02-14T11:47:22;10.60;44.70
80367;DHT22;70058;42.660;23.366;2024-02-14T11:49:48;10.10;45.30
80367;DHT22;70058;42.660;23.366;2024-02-14T11:52:14;9.90;46.30
80367;DHT22;70058;42.660;23.366;2024-02-14T11:54:45;10.10;46.40
80367;DHT22;70058;42.660;23.366;2024-02-14T11:57:11;10.00;46.30
80367;DHT22;70058;42.660;23.366;2024-02-14T11:59:36;9.90;46.60
80367;DHT22;70058;42.660;23.366;2024-02-14T12:02:06;9.90;46.90
80367;DHT22;70058;42.660;23.366;2024-02-14T12:04:32;10.00;46.80
80367;DHT22;70058;42.660;23.366;2024-02-14T12:07:15;10.10;46.40
80367;DHT22;70058;42.660;23.366;2024-02-14T12:09:45;10.20;46.30
80367;DHT22;70058;42.660;23.366;2024-02-14T12:12:11;10.30;46.10
80367;DHT22;70058;42.660;23.366;2024-02-14T12:14:37;10.10;45.80
80367;DHT22;70058;42.660;23.366;2024-02-14T12:17:04;10.10;46.50
80367;DHT22;70058;42.660;23.366;2024-02-14T12:19:32;10.30;45.70
80367;DHT22;70058;42.660;23.366;2024-02-14T12:22:00;10.20;45.70
80367;DHT22;70058;42.660;23.366;2024-02-14T12:24:28;10.20;45.60
80367;DHT22;70058;42.660;23.366;2024-02-14T12:26:57;10.20;45.60
80367;DHT22;70058;42.660;23.366;2024-02-14T12:29:24;10.30;45.70
80367;DHT22;70058;42.660;23.366;2024-02-14T12:31:50;10.30;45.30
80367;DHT22;70058;42.660;23.366;2024-02-14T12:34:16;10.60;45.00
80367;DHT22;70058;42.660;23.366;2024-02-14T12:36:45;10.50;45.00
80367;DHT22;70058;42.660;23.366;2024-02-14T12:39:11;10.40;44.60
80367;DHT22;70058;42.660;23.366;2024-02-14T12:41:38;10.40;45.50
80367;DHT22;70058;42.660;23.366;2024-02-14T12:44:05;10.50;45.00
80367;DHT22;70058;42.660;23.366;2024-02-14T12:46:31;10.70;44.80
80367;DHT22;70058;42.660;23.366;2024-02-14T12:48:58;10.70;44.90
80367;DHT22;70058;42.660;23.366;2024-02-14T12:51:23;10.70;45.10
80367;DHT22;70058;42.660;23.366;2024-02-14T12:53:57;10.80;44.60
80367;DHT22;70058;42.660;23.366;2024-02-14T12:56:22;10.80;44.60
80367;DHT22;70058;42.660;23.366;2024-02-14T12:58:52;10.90;44.90
80367;DHT22;70058;42.660;23.366;2024-02-14T13:01:19;10.80;44.30
80367;DHT22;70058;42.660;23.366;2024-02-14T13:03:45;11.00;44.40
80367;DHT22;70058;42.660;23.366;2024-02-14T13:06:11;11.10;43.90
80367;DHT22;70058;42.660;23.366;2024-02-14T13:08:37;11.10;43.80
80367;DHT22;70058;42.660;23.366;2024-02-14T13:11:05;11.10;43.80
80367;DHT22;70058;42.660;23.366;2024-02-14T13:13:30;11.00;43.80
80367;DHT22;70058;42.660;23.366;2024-02-14T13:15:56;11.10;43.60
80367;DHT22;70058;42.660;23.366;2024-02-14T13:18:23;11.10;43.50
80367;DHT22;70058;42.660;23.366;2024-02-14T13:20:51;11.20;43.30
80367;DHT22;70058;42.660;23.366;2024-02-14T13:23:27;11.20;43.20
80367;DHT22;70058;42.660;23.366;2024-02-14T13:25:52;11.10;43.20
80367;DHT22;70058;42.660;23.366;2024-02-14T13:28:18;11.20;43.80
80367;DHT22;70058;42.660;23.366;2024-02-14T13:30:44;11.20;43.40
80367;DHT22;70058;42.660;23.366;2024-02-14T13:33:13;11.20;43.40
80367;DHT22;70058;42.660;23.366;2024-02-14T13:35:39;11.40;43.10
80367;DHT22;70058;42.660;23.366;2024-02-14T13:38:08;11.50;42.50
80367;DHT22;70058;42.660;23.366;2024-02-14T13:40:37;11.40;43.20
80367;DHT22;70058;42.660;23.366;2024-02-14T13:43:02;11.30;43.50
80367;DHT22;70058;42.660;23.366;2024-02-14T13:45:43;11.30;42.80
80367;DHT22;70058;42.660;23.366;2024-02-14T13:48:09;11.20;42.90
80367;DHT22;70058;42.660;23.366;2024-02-14T13:50:40;10.90;42.80
80367;DHT22;70058;42.660;23.366;2024-02-14T13:53:08;11.10;43.40
80367;DHT22;70058;42.660;23.366;2024-02-14T13:55:33;11.00;43.40
80367;DHT22;70058;42.660;23.366;2024-02-14T13:57:59;11.00;44.30
80367;DHT22;70058;42.660;23.366;2024-02-14T14:00:27;11.20;43.50
80367;DHT22;70058;42.660;23.366;2024-02-14T14:02:52;11.40;43.40
80367;DHT22;70058;42.660;23.366;2024-02-14T14:05:19;11.60;42.90
80367;DHT22;70058;42.660;23.366;2024-02-14T14:07:47;11.50;42.90
80367;DHT22;70058;42.660;23.366;2024-02-14T14:10:13;11.40;43.00
80367;DHT22;70058;42.660;23.366;2024-02-14T14:12:38;11.40;42.70
80367;DHT22;70058;42.660;23.366;2024-02-14T14:15:05;11.50;42.40
80367;DHT22;70058;42.660;23.366;2024-02-14T14:17:34;11.40;42.90
80367;DHT22;70058;42.660;23.366;2024-02-14T14:19:59;11.50;43.30
80367;DHT22;70058;42.660;23.366;2024-02-14T14:22:25;11.70;42.60
80367;DHT22;70058;42.660;23.366;2024-02-14T14:24:51;11.60;42.50
80367;DHT22;70058;42.660;23.366;2024-02-14T14:27:16;11.60;42.10
80367;DHT22;70058;42.660;23.366;2024-02-14T14:29:43;11.50;43.10
80367;DHT22;70058;42.660;23.366;2024-02-14T14:32:10;11.60;42.90
80367;DHT22;70058;42.660;23.366;2024-02-14T14:34:36;11.60;41.90
80367;DHT22;70058;42.660;23.366;2024-02-14T14:37:02;11.50;42.10
80367;DHT22;70058;42.660;23.366;2024-02-14T14:39:29;11.50;42.00
80367;DHT22;70058;42.660;23.366;2024-02-14T14:41:56;11.50;42.40
80367;DHT22;70058;42.660;23.366;2024-02-14T14:44:24;11.50;42.20
80367;DHT22;70058;42.660;23.366;2024-02-14T14:46:51;11.50;41.90
80367;DHT22;70058;42.660;23.366;2024-02-14T14:49:16;11.50;42.60
80367;DHT22;70058;42.660;23.366;2024-02-14T14:51:42;11.30;41.80
80367;DHT22;70058;42.660;23.366;2024-02-14T14:54:09;11.30;42.10
80367;DHT22;70058;42.660;23.366;2024-02-14T14:56:37;11.20;42.20
80367;DHT22;70058;42.660;23.366;2024-02-14T14:59:03;11.10;42.70
80367;DHT22;70058;42.660;23.366;2024-02-14T15:01:30;11.10;42.80
80367;DHT22;70058;42.660;23.366;2024-02-14T15:03:55;11.10;42.40
80367;DHT22;70058;42.660;23.366;2024-02-14T15:06:21;11.00;42.40
80367;DHT22;70058;42.660;23.366;2024-02-14T15:08:47;10.80;42.40
80367;DHT22;70058;42.660;23.366;2024-02-14T15:11:13;10.80;42.70
80367;DHT22;70058;42.660;23.366;2024-02-14T15:13:42;10.80;42.90
80367;DHT22;70058;42.660;23.366;2024-02-14T15:16:08;10.70;43.10
80367;DHT22;70058;42.660;23.366;2024-02-14T15:18:34;10.60;43.00
80367;DHT22;70058;42.660;23.366;2024-02-14T15:21:01;10.60;43.30
80367;DHT22;70058;42.660;23.366;2024-02-14T15:23:28;10.40;43.30